Terminal Aerodrome Forecast
Issued by NWS

Home | Current Version | Previous Version | Text Only | Print | Product List | Glossary On
Versions: 1 2 3 4 5 6 7 8 9 10 11 12 13 14 15 16
501
FTUS46 KMFR 251912 AAA
TAFOTH
TAF AMD
KOTH 251912Z 2519/2618 26005KT P6SM BKN020 OVC035
     FM252100 26007KT P6SM SCT040 BKN150
     FM260400 15005KT P6SM BKN120
     FM261100 15010KT P6SM -RA BKN050 OVC080=

USA.gov is the U.S. government's official web portal to all federal, state and local government web resources and services.